Time;durP1;ratioP1;P1;durP2;ratioP2;P2;SDS_P1;SDS_P2;PMS_P1;PMS_P2;Temp;Humidity;BMP_temperature;BMP_pressure;BME280_temperature;BME280_humidity;BME280_pressure;Samples;Min_cycle;Max_cycle;Signal;HPM_P1;HPM_P2
2023/09/11 00:00:44;;;;;;;14.30;12.90;;;19.80;99.90;;;;;;4917659;29;20294;-70
2023/09/11 00:03:09;;;;;;;12.13;11.03;;;19.80;99.90;;;;;;4917664;29;20616;-69
2023/09/11 00:05:35;;;;;;;14.30;12.03;;;19.70;99.90;;;;;;4917728;29;20191;-70
2023/09/11 00:08:01;;;;;;;14.03;12.60;;;19.70;99.90;;;;;;4917683;29;20178;-69
2023/09/11 00:10:26;;;;;;;13.43;12.17;;;19.60;99.90;;;;;;4917753;29;20273;-70
2023/09/11 00:12:52;;;;;;;14.87;11.83;;;19.60;99.90;;;;;;4917249;29;20605;-69
2023/09/11 00:15:18;;;;;;;16.13;14.40;;;19.60;99.90;;;;;;4917902;29;20258;-70
2023/09/11 00:17:43;;;;;;;14.50;12.27;;;19.50;99.90;;;;;;4917478;29;20200;-70
2023/09/11 00:20:10;;;;;;;13.63;12.23;;;19.50;99.90;;;;;;4917430;29;20173;-71
2023/09/11 00:22:36;;;;;;;14.47;13.00;;;19.40;99.90;;;;;;4917414;29;20577;-69
2023/09/11 00:25:02;;;;;;;12.93;11.53;;;19.40;99.90;;;;;;4917349;29;20467;-70
2023/09/11 00:27:27;;;;;;;14.23;12.73;;;19.40;99.90;;;;;;4917504;29;20976;-70
2023/09/11 00:29:53;;;;;;;20.87;13.37;;;19.30;99.90;;;;;;4917411;29;20929;-70
2023/09/11 00:32:19;;;;;;;13.07;11.77;;;19.40;99.90;;;;;;4917288;29;20289;-69
2023/09/11 00:34:44;;;;;;;14.07;12.77;;;19.40;99.90;;;;;;4917305;29;20179;-70
2023/09/11 00:37:10;;;;;;;14.63;13.23;;;19.30;99.90;;;;;;4917134;29;20199;-70
2023/09/11 00:39:35;;;;;;;15.50;13.77;;;19.40;99.90;;;;;;4917277;29;20624;-70
2023/09/11 00:42:01;;;;;;;15.27;13.87;;;19.30;99.90;;;;;;4916762;29;20221;-70
2023/09/11 00:44:26;;;;;;;14.70;13.27;;;19.30;99.90;;;;;;4916655;29;20255;-69
2023/09/11 00:46:53;;;;;;;14.27;12.90;;;19.20;99.90;;;;;;4916924;29;20188;-71
2023/09/11 00:49:20;;;;;;;13.37;12.03;;;19.20;99.90;;;;;;4916869;29;20198;-72
2023/09/11 00:51:46;;;;;;;14.17;12.87;;;19.20;99.90;;;;;;4916961;29;20450;-71
2023/09/11 00:54:14;;;;;;;13.70;12.50;;;19.20;99.90;;;;;;4916978;29;20475;-71
2023/09/11 00:56:40;;;;;;;13.17;11.77;;;19.10;99.90;;;;;;4916880;29;20417;-70
2023/09/11 00:59:06;;;;;;;15.00;11.80;;;19.10;99.90;;;;;;4916596;29;20425;-70
2023/09/11 01:01:31;;;;;;;13.07;11.97;;;19.10;99.90;;;;;;4916653;29;20603;-70
2023/09/11 01:03:58;;;;;;;12.57;11.37;;;19.00;99.90;;;;;;4916610;29;20173;-70
2023/09/11 01:06:24;;;;;;;13.23;11.97;;;19.00;99.90;;;;;;4916547;29;20230;-70
2023/09/11 01:08:54;;;;;;;13.57;12.07;;;18.90;99.90;;;;;;4916469;29;20911;-70
2023/09/11 01:11:20;;;;;;;13.33;12.03;;;18.90;99.90;;;;;;4916103;29;20235;-70
2023/09/11 01:13:46;;;;;;;12.80;11.67;;;19.00;99.90;;;;;;4916420;29;20505;-70
2023/09/11 01:16:26;;;;;;;14.63;13.13;;;19.00;99.90;;;;;;4916381;29;20901;-70
2023/09/11 01:19:09;;;;;;;12.63;11.43;;;18.90;99.90;;;;;;4916548;29;20255;-69
2023/09/11 01:22:05;;;;;;;13.80;12.40;;;18.80;99.90;;;;;;4916774;29;20429;-71
2023/09/11 01:25:07;;;;;;;14.93;12.30;;;18.80;99.90;;;;;;4915633;29;20409;-69
2023/09/11 01:28:02;;;;;;;13.10;11.80;;;18.70;99.90;;;;;;4916880;29;20599;-70
2023/09/11 01:30:28;;;;;;;14.00;12.60;;;18.70;99.90;;;;;;4916208;29;20897;-69
2023/09/11 01:32:55;;;;;;;14.70;13.17;;;18.70;99.90;;;;;;4916052;29;20928;-70
2023/09/11 01:35:21;;;;;;;14.63;12.97;;;18.60;99.90;;;;;;4916099;29;20422;-70
2023/09/11 01:37:46;;;;;;;14.13;12.80;;;18.60;99.90;;;;;;4914443;29;20789;-70
2023/09/11 01:40:12;;;;;;;14.63;12.77;;;18.50;99.90;;;;;;4913238;29;20175;-68
2023/09/11 01:42:44;;;;;;;13.73;12.43;;;18.50;99.90;;;;;;4915897;29;20193;-69
2023/09/11 01:45:14;;;;;;;15.50;13.70;;;18.50;99.90;;;;;;4915846;29;20180;-69
2023/09/11 01:47:45;;;;;;;13.87;12.67;;;18.50;99.90;;;;;;4916071;29;20459;-68
2023/09/11 01:50:14;;;;;;;13.73;12.30;;;18.50;99.90;;;;;;4915741;29;20421;-69
2023/09/11 01:52:41;;;;;;;13.07;11.80;;;18.40;99.90;;;;;;4915693;29;20959;-69
2023/09/11 01:55:08;;;;;;;14.40;13.00;;;18.40;99.90;;;;;;4915881;29;20428;-68
2023/09/11 01:57:34;;;;;;;14.50;13.10;;;18.40;99.90;;;;;;4915827;29;21012;-69
2023/09/11 01:59:59;;;;;;;13.80;12.50;;;18.40;99.90;;;;;;4915810;29;20431;-70
2023/09/11 02:02:25;;;;;;;14.53;13.00;;;18.40;99.90;;;;;;4915523;29;20630;-70
2023/09/11 02:04:50;;;;;;;14.07;12.67;;;18.50;99.90;;;;;;4916191;29;20632;-69
2023/09/11 02:07:16;;;;;;;13.60;12.30;;;18.50;99.90;;;;;;4915586;29;20314;-69
2023/09/11 02:09:41;;;;;;;14.70;13.30;;;18.40;99.90;;;;;;4915708;29;20266;-70
2023/09/11 02:12:07;;;;;;;14.40;13.10;;;18.40;99.90;;;;;;4915211;29;20763;-69
2023/09/11 02:14:33;;;;;;;14.43;13.00;;;18.40;99.90;;;;;;4916690;29;20177;-70
2023/09/11 02:17:02;;;;;;;16.20;14.53;;;18.30;99.90;;;;;;4917700;29;20196;-70
2023/09/11 02:19:29;;;;;;;15.67;13.20;;;18.30;99.90;;;;;;4918552;29;20173;-70
2023/09/11 02:21:55;;;;;;;14.23;12.93;;;18.30;99.90;;;;;;4917712;29;20528;-70
2023/09/11 02:24:20;;;;;;;15.20;13.83;;;18.30;99.90;;;;;;4915361;29;20523;-70
2023/09/11 02:26:46;;;;;;;14.60;13.10;;;18.40;99.90;;;;;;4915392;29;20183;-70
2023/09/11 02:29:11;;;;;;;14.47;13.07;;;18.50;99.90;;;;;;4915413;29;20283;-70
2023/09/11 02:31:37;;;;;;;17.23;14.50;;;18.40;99.90;;;;;;4915405;29;20233;-70
2023/09/11 02:34:02;;;;;;;14.27;12.70;;;18.30;99.90;;;;;;4916027;29;20168;-70
2023/09/11 02:36:28;;;;;;;15.87;13.37;;;18.20;99.90;;;;;;4919626;29;20203;-70
2023/09/11 02:38:54;;;;;;;15.73;14.13;;;18.20;99.90;;;;;;4919233;29;20203;-70
2023/09/11 02:41:19;;;;;;;15.80;14.20;;;18.10;99.90;;;;;;4918981;29;20772;-70
2023/09/11 02:43:45;;;;;;;14.13;12.63;;;18.10;99.90;;;;;;4919074;29;20219;-69
2023/09/11 02:46:10;;;;;;;15.17;13.67;;;18.10;99.90;;;;;;4919093;29;20181;-70
2023/09/11 02:48:43;;;;;;;17.23;15.50;;;18.10;99.90;;;;;;4919189;29;20180;-70
2023/09/11 02:51:08;;;;;;;14.90;13.40;;;18.10;99.90;;;;;;4918919;29;20215;-70
2023/09/11 02:53:34;;;;;;;14.60;13.10;;;18.20;99.90;;;;;;4918842;29;20428;-70
2023/09/11 02:56:00;;;;;;;15.87;13.73;;;18.30;99.90;;;;;;4918900;29;20200;-69
2023/09/11 02:58:25;;;;;;;15.53;14.03;;;18.40;99.90;;;;;;4918792;29;20217;-69
2023/09/11 03:00:51;;;;;;;17.57;13.80;;;18.30;99.90;;;;;;4935464;29;20303;-70
2023/09/11 03:03:16;;;;;;;14.57;13.07;;;18.20;99.90;;;;;;4939911;29;20427;-70
2023/09/11 03:05:42;;;;;;;15.40;13.83;;;18.10;99.90;;;;;;4933328;29;20176;-69
2023/09/11 03:08:07;;;;;;;19.40;14.23;;;18.10;99.90;;;;;;4923422;29;20272;-70
2023/09/11 03:10:33;;;;;;;15.67;14.27;;;18.00;99.90;;;;;;4918326;29;20554;-70
2023/09/11 03:12:59;;;;;;;16.33;14.83;;;18.00;99.90;;;;;;4918617;29;20219;-71
2023/09/11 03:15:27;;;;;;;15.90;14.30;;;18.00;99.90;;;;;;4918436;29;20219;-70
2023/09/11 03:17:52;;;;;;;15.07;13.50;;;18.00;99.90;;;;;;4918297;29;20281;-70
2023/09/11 03:20:18;;;;;;;16.20;14.50;;;18.00;99.90;;;;;;4918435;29;20520;-70
2023/09/11 03:22:44;;;;;;;15.70;14.30;;;18.00;99.90;;;;;;4918802;29;20783;-70
2023/09/11 03:25:10;;;;;;;15.40;14.00;;;18.00;99.90;;;;;;4918765;29;20214;-70
2023/09/11 03:27:35;;;;;;;15.50;13.90;;;18.00;99.90;;;;;;4918217;29;20421;-69
2023/09/11 03:30:01;;;;;;;14.93;13.60;;;18.00;99.90;;;;;;4918261;29;20707;-70
2023/09/11 03:32:27;;;;;;;15.73;14.27;;;18.00;99.90;;;;;;4918028;29;20208;-69
2023/09/11 03:34:55;;;;;;;15.90;13.50;;;17.90;99.90;;;;;;4918347;29;20191;-70
2023/09/11 03:37:24;;;;;;;17.20;15.60;;;18.00;99.90;;;;;;4918653;29;20235;-69
2023/09/11 03:39:49;;;;;;;17.20;15.17;;;18.00;99.90;;;;;;4918168;29;20434;-70
2023/09/11 03:42:15;;;;;;;15.00;13.70;;;18.00;99.90;;;;;;4917791;29;20444;-70
2023/09/11 03:44:41;;;;;;;14.57;13.07;;;17.90;99.90;;;;;;4918249;29;20285;-71
2023/09/11 03:47:06;;;;;;;18.10;14.03;;;17.90;99.90;;;;;;4917399;29;20605;-71
2023/09/11 03:49:32;;;;;;;14.70;13.40;;;17.90;99.90;;;;;;4918543;29;20185;-73
2023/09/11 03:51:57;;;;;;;16.77;15.23;;;17.90;99.90;;;;;;4918031;29;20228;-71
2023/09/11 03:54:23;;;;;;;15.80;14.13;;;17.90;99.90;;;;;;4915096;29;20248;-72
2023/09/11 03:56:49;;;;;;;14.80;13.50;;;17.90;99.90;;;;;;4909620;29;20613;-70
2023/09/11 03:59:15;;;;;;;24.93;17.67;;;17.90;99.90;;;;;;4917764;29;20182;-71
2023/09/11 04:01:40;;;;;;;19.70;17.37;;;18.00;99.90;;;;;;4917173;29;20254;-71
2023/09/11 04:04:06;;;;;;;16.40;14.70;;;18.00;99.90;;;;;;4911738;29;20242;-71
2023/09/11 04:06:31;;;;;;;16.73;15.10;;;18.10;99.90;;;;;;4910024;29;20177;-72
2023/09/11 04:08:57;;;;;;;15.80;14.30;;;18.10;99.90;;;;;;4918354;29;20191;-72
2023/09/11 04:11:23;;;;;;;16.43;14.70;;;18.10;99.90;;;;;;4915267;29;20216;-70
2023/09/11 04:13:49;;;;;;;15.43;13.90;;;18.20;99.90;;;;;;4938205;23;20280;-67
2023/09/11 04:16:15;;;;;;;16.03;14.33;;;18.20;99.90;;;;;;4925175;29;20266;-70
2023/09/11 04:18:44;;;;;;;16.50;14.73;;;18.10;99.90;;;;;;4936264;29;20460;-67
2023/09/11 04:21:10;;;;;;;17.30;15.70;;;18.10;99.90;;;;;;4936164;29;20427;-66
2023/09/11 04:23:35;;;;;;;20.83;16.17;;;18.10;99.90;;;;;;4913717;29;20446;-67
2023/09/11 04:26:01;;;;;;;19.03;16.33;;;18.10;99.90;;;;;;4915998;29;20183;-67
2023/09/11 04:28:27;;;;;;;16.43;14.60;;;18.10;99.90;;;;;;4915663;29;20181;-67
2023/09/11 04:30:52;;;;;;;17.20;15.23;;;18.20;99.90;;;;;;4913793;29;20186;-65
2023/09/11 04:33:18;;;;;;;16.80;15.20;;;18.20;99.90;;;;;;4913894;29;20210;-66
2023/09/11 04:35:44;;;;;;;16.60;15.10;;;18.20;99.90;;;;;;4916916;29;20188;-66
2023/09/11 04:38:10;;;;;;;15.27;13.50;;;18.10;99.90;;;;;;4916884;29;20215;-66
2023/09/11 04:40:36;;;;;;;16.93;15.43;;;18.10;99.90;;;;;;4914852;29;20866;-66
2023/09/11 04:43:02;;;;;;;17.27;15.50;;;18.00;99.90;;;;;;4916709;29;20215;-66
2023/09/11 04:45:27;;;;;;;16.27;14.63;;;18.00;99.90;;;;;;4916610;29;20452;-66
2023/09/11 04:47:53;;;;;;;16.80;15.17;;;18.00;99.90;;;;;;4916785;29;20644;-66
2023/09/11 04:50:18;;;;;;;16.87;15.23;;;18.00;99.90;;;;;;4909052;29;20272;-66
2023/09/11 04:52:44;;;;;;;18.00;14.33;;;18.00;99.90;;;;;;4908794;29;20206;-66
2023/09/11 04:55:10;;;;;;;17.00;15.10;;;18.00;99.90;;;;;;4916676;29;20215;-67
2023/09/11 04:57:36;;;;;;;17.97;16.17;;;18.00;99.90;;;;;;4908449;29;20286;-66
2023/09/11 05:00:09;;;;;;;16.30;14.80;;;18.10;99.90;;;;;;4908580;29;20526;-67
2023/09/11 05:02:35;;;;;;;18.23;14.37;;;18.10;99.90;;;;;;4915363;29;20443;-66
2023/09/11 05:05:00;;;;;;;16.20;14.60;;;18.20;99.90;;;;;;4916583;29;20420;-68
2023/09/11 05:07:26;;;;;;;15.60;14.13;;;18.20;99.90;;;;;;4908648;29;20417;-67
2023/09/11 05:09:52;;;;;;;18.03;14.93;;;18.20;99.90;;;;;;4916685;29;20522;-69
2023/09/11 05:12:17;;;;;;;15.47;13.83;;;18.30;99.90;;;;;;4916024;29;20280;-67
2023/09/11 05:14:43;;;;;;;16.60;14.93;;;18.30;99.90;;;;;;4916247;29;20176;-67
2023/09/11 05:17:09;;;;;;;16.00;14.37;;;18.30;99.90;;;;;;4916162;29;20656;-67
2023/09/11 05:19:35;;;;;;;17.40;15.33;;;18.40;99.90;;;;;;4916167;29;20423;-67
2023/09/11 05:22:00;;;;;;;14.83;13.53;;;18.40;99.90;;;;;;4915099;29;20181;-68
2023/09/11 05:24:26;;;;;;;17.03;14.87;;;18.50;99.90;;;;;;4910170;29;20180;-70
2023/09/11 05:26:51;;;;;;;16.30;14.70;;;18.50;99.90;;;;;;4916217;29;20184;-67
2023/09/11 05:29:17;;;;;;;20.73;15.40;;;18.60;99.90;;;;;;4915893;29;20172;-67
2023/09/11 05:31:42;;;;;;;15.60;14.10;;;18.70;99.90;;;;;;4914951;29;20180;-67
2023/09/11 05:34:08;;;;;;;19.93;15.80;;;18.70;99.90;;;;;;4914740;29;20205;-68
2023/09/11 05:36:34;;;;;;;17.63;15.73;;;18.80;99.90;;;;;;4915906;29;20173;-68
2023/09/11 05:39:00;;;;;;;17.20;15.37;;;18.90;99.90;;;;;;4915799;29;20742;-66
2023/09/11 05:41:25;;;;;;;16.20;14.53;;;19.00;99.90;;;;;;4915803;29;20428;-66
2023/09/11 05:43:52;;;;;;;17.93;16.03;;;19.10;99.90;;;;;;4915683;29;20200;-67
2023/09/11 05:46:18;;;;;;;19.20;17.13;;;19.40;99.90;;;;;;4915675;29;20217;-68
2023/09/11 05:48:43;;;;;;;19.10;15.87;;;19.70;99.90;;;;;;4915753;29;20427;-68
2023/09/11 05:51:09;;;;;;;19.30;15.77;;;20.20;99.90;;;;;;4915647;29;20438;-65
2023/09/11 05:53:35;;;;;;;19.27;16.10;;;20.60;99.90;;;;;;4915421;29;20289;-67
2023/09/11 05:56:01;;;;;;;24.00;15.93;;;21.00;99.90;;;;;;4915808;29;20183;-67
2023/09/11 05:58:27;;;;;;;16.90;14.13;;;21.40;99.90;;;;;;4903882;29;20470;-70
2023/09/11 06:00:53;;;;;;;17.50;15.77;;;21.60;99.90;;;;;;4915613;29;20267;-66
2023/09/11 06:03:19;;;;;;;20.07;14.57;;;22.00;99.90;;;;;;4914415;29;20236;-69
2023/09/11 06:05:44;;;;;;;20.73;15.57;;;22.30;99.90;;;;;;4915575;29;20519;-66
2023/09/11 06:08:11;;;;;;;20.93;15.50;;;22.50;99.90;;;;;;4915669;29;20265;-70
2023/09/11 06:10:37;;;;;;;18.70;16.67;;;22.80;99.90;;;;;;4916031;29;20202;-71
2023/09/11 06:13:03;;;;;;;17.80;15.90;;;23.10;99.90;;;;;;4915207;29;20458;-67
2023/09/11 06:15:29;;;;;;;18.20;15.20;;;23.50;99.90;;;;;;4915628;29;20179;-66
2023/09/11 06:17:55;;;;;;;17.70;15.10;;;23.80;99.90;;;;;;4915724;29;20233;-67
2023/09/11 06:20:21;;;;;;;16.67;15.03;;;24.20;99.90;;;;;;4915561;29;20423;-68
2023/09/11 06:22:47;;;;;;;20.07;15.33;;;24.50;99.90;;;;;;4915400;29;20789;-69
2023/09/11 06:25:13;;;;;;;15.83;14.20;;;24.90;99.90;;;;;;4912345;29;20890;-67
2023/09/11 06:27:38;;;;;;;16.27;14.67;;;24.90;99.90;;;;;;4915492;29;20431;-67
2023/09/11 06:30:05;;;;;;;16.70;13.43;;;25.10;99.90;;;;;;4915633;29;20605;-67
2023/09/11 06:32:32;;;;;;;16.13;14.30;;;25.20;99.90;;;;;;4914377;29;20221;-68
2023/09/11 06:34:58;;;;;;;14.63;13.13;;;25.50;99.90;;;;;;4915344;29;20508;-68
2023/09/11 06:37:24;;;;;;;14.90;12.27;;;25.90;99.90;;;;;;4915071;29;20965;-69
2023/09/11 06:39:50;;;;;;;13.73;12.30;;;26.10;99.90;;;;;;4915226;29;20479;-68
2023/09/11 06:42:20;;;;;;;15.13;11.83;;;26.00;99.90;;;;;;4908625;29;20211;-67
2023/09/11 06:44:46;;;;;;;13.17;11.77;;;26.10;99.90;;;;;;4915064;29;20427;-68
2023/09/11 06:47:12;;;;;;;12.37;11.20;;;25.70;99.90;;;;;;4915289;29;20419;-67
2023/09/11 06:49:38;;;;;;;12.23;11.27;;;26.20;99.90;;;;;;4915131;29;20180;-69
2023/09/11 06:52:03;;;;;;;12.90;11.57;;;26.30;99.90;;;;;;4915005;29;20441;-67
2023/09/11 06:54:29;;;;;;;12.90;11.30;;;26.80;99.90;;;;;;4914923;29;20192;-67
2023/09/11 06:56:55;;;;;;;14.67;11.73;;;27.30;99.90;;;;;;4914861;29;20435;-67
2023/09/11 06:59:20;;;;;;;10.77;9.77;;;27.40;99.90;;;;;;4915112;29;20646;-67
2023/09/11 07:01:47;;;;;;;12.77;11.33;;;27.40;99.90;;;;;;4914884;29;20187;-69
2023/09/11 07:04:13;;;;;;;10.37;9.37;;;27.70;99.90;;;;;;4906255;29;20678;-67
2023/09/11 07:06:38;;;;;;;10.63;9.33;;;27.70;99.90;;;;;;4915708;29;20510;-68
2023/09/11 07:09:07;;;;;;;12.57;9.97;;;28.00;99.90;;;;;;4915889;29;20788;-67
2023/09/11 07:11:33;;;;;;;10.30;9.40;;;27.80;99.90;;;;;;4914955;29;20187;-66
2023/09/11 07:13:59;;;;;;;11.20;10.20;;;27.90;99.90;;;;;;4914998;29;20510;-67
2023/09/11 07:16:25;;;;;;;9.53;8.63;;;28.10;99.90;;;;;;4914846;29;20423;-69
2023/09/11 07:18:51;;;;;;;12.90;10.80;;;28.10;99.90;;;;;;4914875;29;20475;-68
2023/09/11 07:21:16;;;;;;;11.30;9.50;;;28.40;99.90;;;;;;4915716;29;20176;-70
2023/09/11 07:23:42;;;;;;;11.47;9.13;;;29.10;99.90;;;;;;4917965;29;20494;-70
2023/09/11 07:26:08;;;;;;;10.77;9.77;;;28.80;99.90;;;;;;4914713;29;20274;-67
2023/09/11 07:28:53;;;;;;;10.20;8.77;;;28.50;99.90;;;;;;4918705;29;20190;-67
2023/09/11 07:31:18;;;;;;;10.27;9.30;;;28.50;99.90;;;;;;4916480;29;20176;-69
2023/09/11 07:33:44;;;;;;;9.00;7.83;;;28.10;99.90;;;;;;4917819;29;20450;-66
2023/09/11 07:36:09;;;;;;;11.07;9.97;;;28.50;99.90;;;;;;4917825;29;20689;-66
2023/09/11 07:38:35;;;;;;;9.60;8.77;;;28.30;99.90;;;;;;4917878;29;20215;-67
2023/09/11 07:41:00;;;;;;;10.13;7.53;;;28.80;99.90;;;;;;4917732;29;20259;-68
2023/09/11 07:43:26;;;;;;;11.77;8.70;;;28.70;99.90;;;;;;4917591;29;20207;-70
2023/09/11 07:45:52;;;;;;;9.60;8.70;;;28.70;99.90;;;;;;4917916;29;20194;-68
2023/09/11 07:48:17;;;;;;;9.20;8.20;;;29.10;99.90;;;;;;4917799;29;20192;-66
2023/09/11 07:50:43;;;;;;;7.80;7.07;;;29.80;99.90;;;;;;4917413;29;20639;-68
2023/09/11 07:53:08;;;;;;;7.53;6.83;;;29.30;99.90;;;;;;4917557;29;20211;-66
2023/09/11 07:55:37;;;;;;;11.23;7.63;;;30.10;99.90;;;;;;4916360;29;20187;-67
2023/09/11 07:58:03;;;;;;;9.53;7.50;;;30.40;99.90;;;;;;4917520;29;20204;-67
2023/09/11 08:00:30;;;;;;;9.57;6.50;;;29.60;99.90;;;;;;4917640;29;20434;-67
2023/09/11 08:02:56;;;;;;;10.87;8.37;;;29.80;99.90;;;;;;4911592;29;20247;-67
2023/09/11 08:05:22;;;;;;;7.30;6.57;;;29.30;99.90;;;;;;4914039;29;20978;-67
2023/09/11 08:07:50;;;;;;;9.67;8.43;;;29.30;99.90;;;;;;4917299;29;20507;-67
2023/09/11 08:10:16;;;;;;;7.73;6.87;;;29.50;99.90;;;;;;4917660;29;20192;-66
2023/09/11 08:12:42;;;;;;;11.60;7.80;;;29.90;99.90;;;;;;4917026;29;20478;-68
2023/09/11 08:15:08;;;;;;;8.07;7.27;;;29.80;99.90;;;;;;4917470;29;20191;-70
2023/09/11 08:17:33;;;;;;;8.40;7.47;;;30.30;99.90;;;;;;4917236;29;20254;-68
2023/09/11 08:19:59;;;;;;;11.10;7.17;;;30.70;99.90;;;;;;4915381;29;20427;-67
2023/09/11 08:22:25;;;;;;;8.23;7.43;;;30.00;99.90;;;;;;4917325;29;20203;-67
2023/09/11 08:24:50;;;;;;;7.33;6.63;;;30.20;99.90;;;;;;4912953;29;20581;-68
2023/09/11 08:27:16;;;;;;;8.17;7.53;;;30.90;99.90;;;;;;4917517;29;20189;-68
2023/09/11 08:29:42;;;;;;;7.20;6.60;;;32.20;98.30;;;;;;4917015;29;20191;-69
2023/09/11 08:32:07;;;;;;;9.27;6.50;;;31.10;99.60;;;;;;4914447;29;20431;-70
2023/09/11 08:34:33;;;;;;;11.10;6.37;;;30.90;99.90;;;;;;4916826;29;20258;-67
2023/09/11 08:37:00;;;;;;;6.40;5.90;;;30.30;99.60;;;;;;4916773;29;20663;-68
2023/09/11 08:39:25;;;;;;;6.67;6.07;;;30.00;99.90;;;;;;4916898;29;20184;-67
2023/09/11 08:41:52;;;;;;;5.50;5.00;;;30.70;98.60;;;;;;4916751;29;20426;-67
2023/09/11 08:44:17;;;;;;;5.40;4.93;;;30.30;98.80;;;;;;4916872;29;20244;-67
2023/09/11 08:46:46;;;;;;;5.60;4.87;;;29.70;98.80;;;;;;4917000;29;20463;-68
2023/09/11 08:49:13;;;;;;;7.13;5.37;;;30.10;99.90;;;;;;4917745;29;20284;-69
2023/09/11 08:51:49;;;;;;;4.97;4.50;;;30.80;98.60;;;;;;4918025;29;20903;-68
2023/09/11 08:54:17;;;;;;;5.43;5.03;;;30.40;97.20;;;;;;4916722;29;20514;-69
2023/09/11 08:56:43;;;;;;;5.10;4.60;;;30.70;97.10;;;;;;4916453;29;20899;-66
2023/09/11 08:59:11;;;;;;;5.57;4.70;;;30.50;97.60;;;;;;4916611;29;20471;-66
2023/09/11 09:01:38;;;;;;;6.23;5.60;;;30.60;97.00;;;;;;4916255;29;20483;-66
2023/09/11 09:04:05;;;;;;;9.37;8.53;;;31.30;97.00;;;;;;4906371;29;20432;-67
2023/09/11 09:06:33;;;;;;;5.10;4.70;;;31.50;96.40;;;;;;4916547;29;20427;-67
2023/09/11 09:08:59;;;;;;;6.20;5.20;;;31.80;94.70;;;;;;4916294;29;20424;-68
2023/09/11 09:11:26;;;;;;;8.77;8.07;;;31.00;95.30;;;;;;4916175;29;21002;-67
2023/09/11 09:13:51;;;;;;;5.50;5.10;;;31.50;94.80;;;;;;4916056;29;20494;-67
2023/09/11 09:16:17;;;;;;;5.13;4.73;;;31.10;94.50;;;;;;4916175;29;20455;-68
2023/09/11 09:18:49;;;;;;;5.20;4.70;;;30.70;95.50;;;;;;4916153;29;20261;-67
2023/09/11 09:21:17;;;;;;;4.37;3.97;;;30.50;95.50;;;;;;4916162;29;20267;-68
2023/09/11 09:23:42;;;;;;;6.27;5.50;;;30.70;95.20;;;;;;4915928;29;20454;-67
2023/09/11 09:26:09;;;;;;;6.10;5.60;;;31.90;93.70;;;;;;4911468;29;20514;-68
2023/09/11 09:28:42;;;;;;;5.33;4.93;;;31.60;92.10;;;;;;4915917;29;20215;-68
2023/09/11 09:31:08;;;;;;;7.40;5.30;;;31.20;93.40;;;;;;4912310;29;20438;-67
2023/09/11 09:33:34;;;;;;;5.80;5.30;;;30.90;93.70;;;;;;4915846;29;20495;-67
2023/09/11 09:36:00;;;;;;;5.30;4.90;;;31.10;93.80;;;;;;4915915;29;20420;-67
2023/09/11 09:38:26;;;;;;;6.47;5.47;;;30.50;94.40;;;;;;4916003;29;21041;-66
2023/09/11 09:40:54;;;;;;;7.77;4.97;;;30.90;94.10;;;;;;4915627;29;20206;-66
2023/09/11 09:43:21;;;;;;;5.90;5.40;;;30.90;93.40;;;;;;4915179;29;20877;-67
2023/09/11 09:45:47;;;;;;;6.50;5.90;;;30.50;94.50;;;;;;4915224;29;20431;-66
2023/09/11 09:48:17;;;;;;;5.87;5.37;;;31.70;92.50;;;;;;4915595;29;20483;-67
2023/09/11 09:50:59;;;;;;;8.87;6.70;;;31.60;91.50;;;;;;4915650;29;20456;-67
2023/09/11 09:53:30;;;;;;;5.70;5.30;;;31.90;91.90;;;;;;4915599;29;20447;-72
2023/09/11 09:55:59;;;;;;;7.43;6.40;;;31.70;91.70;;;;;;4912875;29;20431;-67
2023/09/11 09:58:28;;;;;;;6.83;6.10;;;31.00;92.60;;;;;;4915848;29;20499;-67
2023/09/11 10:00:58;;;;;;;10.27;8.97;;;30.70;92.90;;;;;;4915595;29;20428;-68
2023/09/11 10:03:25;;;;;;;8.40;6.67;;;30.50;93.90;;;;;;4904856;29;20508;-67
2023/09/11 10:05:50;;;;;;;6.57;6.03;;;30.30;95.00;;;;;;4906866;29;20432;-67
2023/09/11 10:08:16;;;;;;;12.60;7.83;;;30.70;94.20;;;;;;4914058;29;20502;-68
2023/09/11 10:10:42;;;;;;;7.80;6.63;;;30.30;94.80;;;;;;4915743;29;20183;-67
2023/09/11 10:13:11;;;;;;;6.47;5.87;;;30.60;93.40;;;;;;4915380;29;20223;-70
2023/09/11 10:15:40;;;;;;;8.80;6.30;;;30.50;94.40;;;;;;4915705;29;20646;-70
2023/09/11 10:18:08;;;;;;;7.83;7.10;;;30.10;94.80;;;;;;4936289;23;20483;-71
2023/09/11 10:20:35;;;;;;;8.10;7.30;;;30.60;94.50;;;;;;4914126;29;20526;-73
2023/09/11 10:23:03;;;;;;;6.73;6.23;;;30.40;95.10;;;;;;4913276;29;20415;-72
2023/09/11 10:25:33;;;;;;;11.07;6.83;;;29.70;95.40;;;;;;4902982;29;20435;-72
2023/09/11 10:28:04;;;;;;;8.37;7.20;;;29.40;95.80;;;;;;4908740;29;20443;-73
2023/09/11 10:31:01;;;;;;;12.97;7.77;;;29.50;95.50;;;;;;4892758;29;20918;-72
2023/09/11 10:33:27;;;;;;;24.33;22.03;;;29.70;95.90;;;;;;4886473;29;20420;-73
2023/09/11 10:36:02;;;;;;;18.53;16.83;;;30.00;95.90;;;;;;4894920;29;20427;-72
2023/09/11 10:38:30;;;;;;;15.33;13.93;;;30.20;95.50;;;;;;4890295;29;20781;-70
2023/09/11 10:40:59;;;;;;;8.20;7.40;;;30.30;95.10;;;;;;4893995;29;20421;-72
2023/09/11 10:43:26;;;;;;;11.63;10.53;;;29.90;95.30;;;;;;4894575;29;20451;-71
2023/09/11 10:45:52;;;;;;;7.80;7.00;;;30.00;95.80;;;;;;4894542;29;20953;-70
2023/09/11 10:48:28;;;;;;;7.17;6.50;;;29.90;95.00;;;;;;4894393;29;20443;-71
2023/09/11 10:50:56;;;;;;;8.67;7.87;;;29.70;95.80;;;;;;4894809;29;20611;-71
2023/09/11 10:53:26;;;;;;;8.00;7.20;;;29.70;95.50;;;;;;4894460;29;20603;-71
2023/09/11 10:55:52;;;;;;;6.87;6.27;;;30.00;95.60;;;;;;4893254;29;20436;-73
2023/09/11 10:58:18;;;;;;;11.73;10.53;;;29.50;95.50;;;;;;4898036;29;20471;-70
2023/09/11 11:00:43;;;;;;;7.43;6.30;;;29.80;95.60;;;;;;4897057;29;20532;-72
2023/09/11 11:03:14;;;;;;;7.87;7.07;;;29.50;95.80;;;;;;4898561;29;20180;-72
2023/09/11 11:05:40;;;;;;;6.77;6.17;;;29.30;95.90;;;;;;4898563;29;20172;-71
2023/09/11 11:08:08;;;;;;;27.17;21.10;;;29.30;96.40;;;;;;4898263;29;20448;-72
2023/09/11 11:10:33;;;;;;;6.27;5.67;;;29.30;96.40;;;;;;4898379;29;20187;-72
2023/09/11 11:13:07;;;;;;;6.47;5.80;;;29.70;96.00;;;;;;4898051;29;20424;-71
2023/09/11 11:15:33;;;;;;;21.27;19.00;;;29.60;95.20;;;;;;4898079;29;20184;-73
2023/09/11 11:18:26;;;;;;;34.60;29.70;;;29.90;95.40;;;;;;4897439;29;20555;-72
2023/09/11 11:21:00;;;;;;;7.90;6.83;;;30.10;95.20;;;;;;4897696;29;20420;-71
2023/09/11 11:23:29;;;;;;;8.00;7.30;;;29.60;94.50;;;;;;4897664;29;20523;-71
2023/09/11 11:25:58;;;;;;;8.50;6.70;;;29.70;94.40;;;;;;4892490;29;20424;-71
2023/09/11 11:28:24;;;;;;;7.23;6.63;;;29.90;93.20;;;;;;4897505;29;20444;-71
2023/09/11 11:30:53;;;;;;;6.33;5.63;;;29.40;94.00;;;;;;4894550;29;20498;-70
2023/09/11 11:33:29;;;;;;;6.90;6.30;;;29.50;94.70;;;;;;4894967;29;20248;-73
2023/09/11 11:35:55;;;;;;;14.33;8.57;;;29.70;94.70;;;;;;4897514;29;21002;-71
2023/09/11 11:38:22;;;;;;;8.60;7.20;;;29.70;94.20;;;;;;4897236;29;20914;-73
2023/09/11 11:40:48;;;;;;;7.20;6.57;;;29.80;94.80;;;;;;4897473;29;20860;-69
2023/09/11 11:43:14;;;;;;;9.07;7.03;;;29.70;95.30;;;;;;4897424;29;20476;-69
2023/09/11 11:45:47;;;;;;;9.80;8.80;;;29.80;94.70;;;;;;4897411;29;20180;-69
2023/09/11 11:48:13;;;;;;;12.50;10.97;;;29.70;95.10;;;;;;4897098;29;20440;-69
2023/09/11 11:50:43;;;;;;;8.30;7.17;;;29.90;95.00;;;;;;4897421;29;20501;-68
2023/09/11 11:53:16;;;;;;;6.80;6.20;;;29.80;94.40;;;;;;4896859;29;20892;-68
2023/09/11 11:55:42;;;;;;;7.90;6.57;;;29.70;94.60;;;;;;4897049;29;20915;-68
2023/09/11 11:58:09;;;;;;;7.60;6.90;;;29.70;95.30;;;;;;4896836;29;20464;-69
2023/09/11 12:00:35;;;;;;;8.07;6.80;;;29.80;95.00;;;;;;4897021;29;20423;-70
2023/09/11 12:03:03;;;;;;;6.97;6.23;;;29.70;94.60;;;;;;4892813;29;20468;-70
2023/09/11 12:05:29;;;;;;;8.20;5.80;;;29.50;93.60;;;;;;4896615;29;20896;-69
2023/09/11 12:07:54;;;;;;;10.03;6.60;;;29.60;93.90;;;;;;4895852;29;20455;-69
2023/09/11 12:10:20;;;;;;;10.30;6.23;;;29.60;94.00;;;;;;4897298;29;20187;-71
2023/09/11 12:12:45;;;;;;;7.90;7.20;;;29.60;93.90;;;;;;4896465;29;20264;-69
2023/09/11 12:15:11;;;;;;;8.80;5.50;;;29.70;94.20;;;;;;4896894;29;20177;-71
2023/09/11 12:17:46;;;;;;;5.87;5.27;;;29.70;93.50;;;;;;4896088;29;20511;-70
2023/09/11 12:20:17;;;;;;;7.73;5.53;;;29.70;93.50;;;;;;4896897;29;20176;-71
2023/09/11 12:22:44;;;;;;;6.37;5.60;;;29.90;93.60;;;;;;4896551;29;20942;-70
2023/09/11 12:25:10;;;;;;;6.50;5.60;;;29.90;93.00;;;;;;4890828;29;20417;-69
2023/09/11 12:27:36;;;;;;;7.10;5.67;;;29.70;92.30;;;;;;4896269;29;20472;-69
2023/09/11 12:30:05;;;;;;;6.40;4.80;;;29.90;92.40;;;;;;4896060;29;20421;-69
2023/09/11 12:32:34;;;;;;;6.60;5.20;;;30.00;91.90;;;;;;4890809;29;20471;-69